createdAt,value
2019-04-20T00:00:35.896Z,100531.03
2019-04-20T00:03:00.986Z,100524.16
2019-04-20T00:05:28.886Z,100526.81
2019-04-20T00:08:00.629Z,100524.08
2019-04-20T00:10:30.101Z,100524.77
2019-04-20T00:13:10.554Z,100525.98
2019-04-20T00:15:28.224Z,100526.47
2019-04-20T00:18:01.236Z,100523.40
2019-04-20T00:20:30.958Z,100522.81
2019-04-20T00:22:59.687Z,100526.76
2019-04-20T00:25:54.585Z,100520.97
2019-04-20T00:28:31.622Z,100523.70
2019-04-20T00:30:58.722Z,100520.58
2019-04-20T00:33:34.952Z,100517.17
2019-04-20T00:35:46.324Z,100523.16
2019-04-20T00:38:15.989Z,100513.41
2019-04-20T00:40:45.475Z,100510.91
2019-04-20T00:43:21.222Z,100518.94
2019-04-20T00:45:57.361Z,100520.83
2019-04-20T00:48:22.700Z,100510.63
2019-04-20T00:50:59.401Z,100514.22
2019-04-20T00:53:23.874Z,100516.33
2019-04-20T00:55:44.417Z,100514.14
2019-04-20T00:58:20.202Z,100509.20
2019-04-20T01:01:07.330Z,100504.84
2019-04-20T01:03:27.662Z,100508.34
2019-04-20T01:06:09.752Z,100506.28
2019-04-20T01:08:17.120Z,100504.77
2019-04-20T01:10:51.498Z,100502.36
2019-04-20T01:13:20.357Z,100507.61
2019-04-20T01:15:55.421Z,100502.69
2019-04-20T01:18:17.097Z,100502.50
2019-04-20T01:20:45.406Z,100499.69
2019-04-20T01:23:19.000Z,100503.83
2019-04-20T01:25:45.858Z,100506.41
2019-04-20T01:28:31.023Z,100516.67
2019-04-20T01:30:58.209Z,100505.45
2019-04-20T01:33:27.900Z,100503.63
2019-04-20T01:35:57.127Z,100512.12
2019-04-20T01:38:32.928Z,100508.83
2019-04-20T01:40:44.402Z,100516.34
2019-04-20T01:43:12.699Z,100511.31
2019-04-20T01:45:43.937Z,100515.36
2019-04-20T01:48:15.112Z,100517.78
2019-04-20T01:50:49.876Z,100511.94
2019-04-20T01:53:23.749Z,100510.73
2019-04-20T01:55:55.767Z,100513.84
2019-04-20T01:58:50.574Z,100513.69
2019-04-20T02:01:21.073Z,100511.75
2019-04-20T02:03:55.085Z,100516.03
2019-04-20T02:06:41.874Z,100511.03
2019-04-20T02:09:14.547Z,100516.55
2019-04-20T02:11:42.587Z,100517.20
2019-04-20T02:14:10.250Z,100522.77
2019-04-20T02:16:42.726Z,100519.95
2019-04-20T02:19:22.934Z,100520.14
2019-04-20T02:21:52.046Z,100522.88
2019-04-20T02:24:10.518Z,100528.69
2019-04-20T02:26:36.923Z,100526.70
2019-04-20T02:29:32.451Z,100523.30
2019-04-20T02:34:49.622Z,100521.16
2019-04-20T02:42:24.244Z,100513.12
2019-04-20T02:45:00.752Z,100519.48
2019-04-20T02:47:25.392Z,100522.41
2019-04-20T02:49:52.473Z,100510.56
2019-04-20T02:52:21.057Z,100514.74
2019-04-20T02:54:53.535Z,100519.33
2019-04-20T02:57:17.939Z,100516.85
2019-04-20T02:59:59.512Z,100514.91
2019-04-20T03:02:06.480Z,100516.52
2019-04-20T03:04:29.498Z,100514.65
2019-04-20T03:07:05.221Z,100518.27
2019-04-20T03:09:40.416Z,100511.20
2019-04-20T03:12:09.195Z,100504.89
2019-04-20T03:14:36.214Z,100501.58
2019-04-20T03:17:12.851Z,100508.42
2019-04-20T03:19:31.358Z,100506.98
2019-04-20T03:22:23.559Z,100500.78
2019-04-20T03:24:46.872Z,100507.45
2019-04-20T03:27:08.261Z,100502.03
2019-04-20T03:30:07.794Z,100504.16
2019-04-20T03:32:53.873Z,100507.05
2019-04-20T03:39:48.870Z,100514.56
2019-04-20T03:42:06.998Z,100511.05
2019-04-20T03:44:35.984Z,100515.63
2019-04-20T03:47:08.837Z,100509.31
2019-04-20T03:50:13.243Z,100519.53
2019-04-20T03:52:28.848Z,100519.92
2019-04-20T03:55:09.592Z,100517.27
2019-04-20T03:57:40.980Z,100519.12
2019-04-20T04:00:26.715Z,100515.20
2019-04-20T04:03:08.449Z,100509.48
2019-04-20T04:05:32.499Z,100515.43
2019-04-20T04:07:55.961Z,100504.19
2019-04-20T04:10:29.303Z,100508.76
2019-04-20T04:13:09.359Z,100512.13
2019-04-20T04:15:47.924Z,100510.35
2019-04-20T04:18:17.165Z,100515.10
2019-04-20T04:20:46.727Z,100510.75
2019-04-20T04:23:32.574Z,100508.27
2019-04-20T04:26:00.885Z,100503.91
2019-04-20T04:28:27.043Z,100503.83
2019-04-20T04:31:05.185Z,100515.23
2019-04-20T04:35:56.847Z,100515.45
2019-04-20T04:38:32.706Z,100521.79
2019-04-20T04:41:08.512Z,100524.70
2019-04-20T04:43:32.614Z,100525.50
2019-04-20T04:45:40.640Z,100529.85
2019-04-20T04:48:14.731Z,100531.63
2019-04-20T04:50:49.578Z,100533.38
2019-04-20T04:53:20.589Z,100535.95
2019-04-20T04:55:47.718Z,100532.92
2019-04-20T04:58:10.599Z,100541.84
2019-04-20T05:00:40.727Z,100546.98
2019-04-20T05:03:26.707Z,100542.78
2019-04-20T05:06:06.490Z,100549.65
2019-04-20T05:08:27.387Z,100548.02
2019-04-20T05:10:50.410Z,100552.95
2019-04-20T05:13:19.902Z,100554.91
2019-04-20T05:16:00.425Z,100557.67
2019-04-20T05:18:41.556Z,100565.48
2019-04-20T05:21:10.993Z,100552.67
2019-04-20T05:23:39.991Z,100558.48
2019-04-20T05:26:20.046Z,100557.97
2019-04-20T05:28:40.755Z,100561.05
2019-04-20T05:31:04.506Z,100561.09
2019-04-20T05:33:49.743Z,100555.06
2019-04-20T05:36:19.173Z,100558.58
2019-04-20T05:38:54.354Z,100556.27
2019-04-20T05:41:18.809Z,100563.86
2019-04-20T05:43:52.051Z,100556.88
2019-04-20T05:46:29.157Z,100560.67
2019-04-20T05:49:00.303Z,100558.73
2019-04-20T05:51:29.779Z,100562.80
2019-04-20T05:53:59.213Z,100564.19
2019-04-20T05:56:30.710Z,100568.12
2019-04-20T05:58:57.973Z,100570.47
2019-04-20T06:01:36.378Z,100562.62
2019-04-20T06:03:53.888Z,100566.98
2019-04-20T06:06:30.606Z,100569.60
2019-04-20T06:08:59.215Z,100567.28
2019-04-20T06:11:26.727Z,100566.08
2019-04-20T06:13:51.492Z,100566.95
2019-04-20T06:16:41.011Z,100565.34
2019-04-20T06:19:18.289Z,100560.99
2019-04-20T06:21:43.960Z,100563.94
2019-04-20T06:24:10.634Z,100572.05
2019-04-20T06:26:53.636Z,100565.84
2019-04-20T06:29:13.680Z,100572.17
2019-04-20T06:31:45.941Z,100574.39
2019-04-20T06:37:09.861Z,100573.81
2019-04-20T06:39:30.992Z,100578.94
2019-04-20T06:47:02.865Z,100573.81
2019-04-20T06:51:59.340Z,100581.42
2019-04-20T06:54:39.472Z,100580.73
2019-04-20T06:57:13.004Z,100581.89
2019-04-20T07:02:18.697Z,100578.84
2019-04-20T07:07:09.723Z,100583.58
2019-04-20T07:09:46.206Z,100586.36
2019-04-20T07:12:06.398Z,100578.92
2019-04-20T07:14:31.529Z,100583.81
2019-04-20T07:17:24.464Z,100583.98
2019-04-20T07:19:40.223Z,100582.51
2019-04-20T07:22:33.729Z,100582.42
2019-04-20T07:25:02.410Z,100589.08
2019-04-20T07:27:32.485Z,100585.81
2019-04-20T07:30:04.095Z,100586.15
2019-04-20T07:32:27.898Z,100587.37
2019-04-20T07:35:03.289Z,100593.25
2019-04-20T07:40:07.751Z,100599.09
2019-04-20T07:42:35.090Z,100595.13
2019-04-20T07:45:07.628Z,100593.16
2019-04-20T07:47:41.584Z,100586.97
2019-04-20T07:50:02.443Z,100585.72
2019-04-20T07:52:12.230Z,100585.82
2019-04-20T07:55:20.192Z,100589.45
2019-04-20T07:57:30.756Z,100594.68
2019-04-20T07:59:58.987Z,100593.47
2019-04-20T08:02:47.332Z,100590.14
2019-04-20T08:05:10.650Z,100583.41
2019-04-20T08:07:39.300Z,100582.98
2019-04-20T08:10:03.840Z,100584.34
2019-04-20T08:12:56.884Z,100582.02
2019-04-20T08:15:29.730Z,100588.30
2019-04-20T08:20:21.757Z,100585.94
2019-04-20T08:22:55.317Z,100593.84
2019-04-20T08:25:14.170Z,100586.22
2019-04-20T08:27:48.801Z,100591.14
2019-04-20T08:30:41.380Z,100587.05
2019-04-20T08:33:21.020Z,100584.56
2019-04-20T08:36:00.922Z,100583.73
2019-04-20T08:38:55.969Z,100581.71
2019-04-20T08:40:53.575Z,100588.61
2019-04-20T08:43:39.476Z,100583.39
2019-04-20T08:45:52.435Z,100576.08
2019-04-20T08:48:27.576Z,100581.34
2019-04-20T08:50:53.250Z,100574.73
2019-04-20T08:53:27.887Z,100572.59
2019-04-20T08:55:47.717Z,100579.20
2019-04-20T08:58:02.614Z,100576.67
2019-04-20T09:00:35.713Z,100569.89
2019-04-20T09:03:09.393Z,100573.52
2019-04-20T09:05:43.955Z,100570.14
2019-04-20T09:08:11.026Z,100575.02
2019-04-20T09:10:49.575Z,100576.06
2019-04-20T09:13:11.508Z,100570.08
2019-04-20T09:15:32.068Z,100570.16
2019-04-20T09:18:13.493Z,100567.05
2019-04-20T09:20:45.923Z,100562.95
2019-04-20T09:23:23.850Z,100565.29
2019-04-20T09:28:27.599Z,100555.84
2019-04-20T09:31:25.779Z,100559.48
2019-04-20T09:33:55.677Z,100552.69
2019-04-20T09:36:40.869Z,100553.78
2019-04-20T09:39:14.995Z,100553.54
2019-04-20T09:41:59.109Z,100554.14
2019-04-20T09:44:08.942Z,100556.82
2019-04-20T09:46:44.210Z,100558.55
2019-04-20T09:49:18.756Z,100553.89
2019-04-20T09:51:54.127Z,100558.01
2019-04-20T09:54:27.094Z,100554.74
2019-04-20T09:56:59.291Z,100551.41
2019-04-20T09:59:25.228Z,100552.81
2019-04-20T10:01:44.860Z,100546.80
2019-04-20T10:04:07.596Z,100552.48
2019-04-20T10:06:36.493Z,100546.47
2019-04-20T10:09:07.724Z,100542.27
2019-04-20T10:11:37.304Z,100541.91
2019-04-20T10:14:06.164Z,100537.22
2019-04-20T10:16:35.647Z,100540.29
2019-04-20T10:19:04.898Z,100535.17
2019-04-20T10:21:33.958Z,100532.73
2019-04-20T10:24:02.837Z,100527.23
2019-04-20T10:26:32.415Z,100525.21
2019-04-20T10:29:01.524Z,100531.34
2019-04-20T10:31:30.695Z,100525.37
2019-04-20T10:33:59.787Z,100527.16
2019-04-20T10:36:35.391Z,100522.52
2019-04-20T10:39:06.510Z,100522.12
2019-04-20T10:41:44.526Z,100527.81
2019-04-20T10:44:04.944Z,100520.78
2019-04-20T10:46:33.408Z,100519.52
2019-04-20T10:49:04.302Z,100511.31
2019-04-20T10:51:31.841Z,100509.73
2019-04-20T10:54:00.420Z,100509.84
2019-04-20T10:56:29.540Z,100511.17
2019-04-20T10:58:57.996Z,100515.22
2019-04-20T11:01:27.459Z,100506.64
2019-04-20T11:03:56.562Z,100508.48
2019-04-20T11:06:25.006Z,100509.02
2019-04-20T11:08:53.250Z,100504.25
2019-04-20T11:11:26.493Z,100505.92
2019-04-20T11:13:53.141Z,100505.02
2019-04-20T11:16:22.265Z,100491.48
2019-04-20T11:18:51.412Z,100496.47
2019-04-20T11:21:19.917Z,100489.09
2019-04-20T11:23:48.401Z,100494.77
2019-04-20T11:26:18.018Z,100488.73
2019-04-20T11:28:46.405Z,100487.08
2019-04-20T11:31:14.935Z,100482.32
2019-04-20T11:33:43.724Z,100477.58
2019-04-20T11:36:12.927Z,100475.02
2019-04-20T11:38:42.749Z,100466.78
2019-04-20T11:41:18.183Z,100462.84
2019-04-20T11:43:41.958Z,100456.67
2019-04-20T11:46:10.579Z,100456.27
2019-04-20T11:48:39.438Z,100456.75
2019-04-20T11:51:07.744Z,100456.35
2019-04-20T11:53:36.431Z,100444.11
2019-04-20T11:56:08.754Z,100449.89
2019-04-20T11:58:36.048Z,100448.19
2019-04-20T12:01:18.746Z,100441.21
2019-04-20T12:03:56.464Z,100437.33
2019-04-20T12:06:15.175Z,100436.89
2019-04-20T12:08:44.319Z,100434.36
2019-04-20T12:11:27.810Z,100426.06
2019-04-20T12:13:44.872Z,100425.27
2019-04-20T12:16:13.893Z,100423.15
2019-04-20T12:18:42.451Z,100426.67
2019-04-20T12:21:10.722Z,100423.59
2019-04-20T12:23:40.233Z,100428.00
2019-04-20T12:26:09.034Z,100416.66
2019-04-20T12:28:37.947Z,100412.78
2019-04-20T12:31:13.136Z,100410.17
2019-04-20T12:33:36.723Z,100404.47
2019-04-20T12:36:07.936Z,100404.05
2019-04-20T12:38:37.035Z,100404.90
2019-04-20T12:41:07.485Z,100381.69
2019-04-20T12:43:36.030Z,100400.98
2019-04-20T12:46:05.512Z,100396.59
2019-04-20T12:48:34.109Z,100400.98
2019-04-20T12:51:03.938Z,100392.62
2019-04-20T12:53:32.726Z,100395.25
2019-04-20T12:56:02.269Z,100388.69
2019-04-20T12:58:30.975Z,100388.27
2019-04-20T13:01:00.435Z,100386.98
2019-04-20T13:03:29.779Z,100385.64
2019-04-20T13:05:58.324Z,100388.28
2019-04-20T13:08:33.637Z,100380.83
2019-04-20T13:10:58.462Z,100378.19
2019-04-20T13:13:28.721Z,100375.63
2019-04-20T13:16:08.190Z,100363.38
2019-04-20T13:18:41.300Z,100359.45
2019-04-20T13:21:09.493Z,100359.45
2019-04-20T13:23:37.734Z,100348.48
2019-04-20T13:26:08.699Z,100353.31
2019-04-20T13:28:37.063Z,100340.16
2019-04-20T13:31:06.077Z,100343.65
2019-04-20T13:33:34.528Z,100352.43
2019-04-20T13:36:03.968Z,100337.95
2019-04-20T13:38:32.394Z,100337.09
2019-04-20T13:41:01.908Z,100334.44
2019-04-20T13:43:30.265Z,100336.58
2019-04-20T13:45:58.516Z,100324.58
2019-04-20T13:48:26.801Z,100322.68
2019-04-20T13:50:56.054Z,100320.72
2019-04-20T13:53:25.319Z,100313.92
2019-04-20T13:55:54.129Z,100310.67
2019-04-20T13:58:40.320Z,100305.08
2019-04-20T14:01:10.528Z,100310.31
2019-04-20T14:03:38.884Z,100299.23
2019-04-20T14:06:07.055Z,100294.08
2019-04-20T14:08:35.797Z,100291.91
2019-04-20T14:11:05.264Z,100290.53
2019-04-20T14:13:39.252Z,100290.02
2019-04-20T14:16:04.999Z,100277.61
2019-04-20T14:18:33.493Z,100281.34
2019-04-20T14:21:02.487Z,100275.58
2019-04-20T14:23:30.969Z,100278.45
2019-04-20T14:26:00.791Z,100269.43
2019-04-20T14:28:29.186Z,100273.64
2019-04-20T14:30:58.180Z,100264.31
2019-04-20T14:33:26.663Z,100266.94
2019-04-20T14:35:54.916Z,100261.20
2019-04-20T14:38:24.293Z,100258.32
2019-04-20T14:40:52.793Z,100255.12
2019-04-20T14:43:21.180Z,100249.55
2019-04-20T14:45:50.614Z,100247.78
2019-04-20T14:48:18.787Z,100251.14
2019-04-20T14:50:47.738Z,100241.30
2019-04-20T14:53:15.952Z,100244.16
2019-04-20T14:55:44.204Z,100237.56
2019-04-20T14:58:23.648Z,100235.30
2019-04-20T15:00:54.859Z,100242.18
2019-04-20T15:03:28.337Z,100233.53
2019-04-20T15:06:00.017Z,100225.89
2019-04-20T15:08:28.642Z,100224.94
2019-04-20T15:10:58.723Z,100224.48
2019-04-20T15:13:28.814Z,100226.60
2019-04-20T15:15:58.917Z,100218.99
2019-04-20T15:18:31.574Z,100213.05
2019-04-20T15:21:05.698Z,100211.12
2019-04-20T15:23:35.288Z,100210.24
2019-04-20T15:26:04.445Z,100206.32
2019-04-20T15:28:32.792Z,100201.98
2019-04-20T15:31:02.378Z,100203.97
2019-04-20T15:33:30.871Z,100200.92
2019-04-20T15:36:00.056Z,100206.56
2019-04-20T15:38:29.152Z,100197.66
2019-04-20T15:40:57.379Z,100191.77
2019-04-20T15:43:27.866Z,100191.77
2019-04-20T15:45:57.190Z,100188.30
2019-04-20T15:48:26.035Z,100188.34
2019-04-20T15:50:54.270Z,100188.09
2019-04-20T15:53:23.908Z,100198.91
2019-04-20T15:55:52.424Z,100193.55
2019-04-20T15:58:20.735Z,100192.65
2019-04-20T16:00:50.895Z,100187.94
2019-04-20T16:03:23.359Z,100186.45
2019-04-20T16:05:56.680Z,100177.92
2019-04-20T16:08:36.683Z,100174.28
2019-04-20T16:11:05.316Z,100178.53
2019-04-20T16:13:39.514Z,100178.55
2019-04-20T16:16:05.842Z,100170.95
2019-04-20T16:18:34.923Z,100173.17
2019-04-20T16:21:09.307Z,100170.41
2019-04-20T16:23:34.880Z,100164.06
2019-04-20T16:26:05.916Z,100162.36
2019-04-20T16:28:35.360Z,100160.34
2019-04-20T16:31:06.560Z,100161.28
2019-04-20T16:33:34.536Z,100163.89
2019-04-20T16:36:03.072Z,100161.59
2019-04-20T16:38:31.477Z,100160.05
2019-04-20T16:41:00.091Z,100156.52
2019-04-20T16:43:33.930Z,100149.58
2019-04-20T16:45:59.289Z,100147.62
2019-04-20T16:48:28.267Z,100149.02
2019-04-20T16:50:56.725Z,100141.72
2019-04-20T16:53:24.975Z,100135.91
2019-04-20T16:55:53.212Z,100135.40
2019-04-20T16:58:21.816Z,100142.70
2019-04-20T17:00:50.126Z,100133.13
2019-04-20T17:03:19.566Z,100139.16
2019-04-20T17:05:51.027Z,100141.87
2019-04-20T17:08:18.736Z,100142.23
2019-04-20T17:10:48.824Z,100132.42
2019-04-20T17:13:28.507Z,100134.88
2019-04-20T17:15:47.905Z,100130.67
2019-04-20T17:18:16.243Z,100125.14
2019-04-20T17:20:44.744Z,100119.55
2019-04-20T17:23:13.120Z,100124.04
2019-04-20T17:25:41.974Z,100121.95
2019-04-20T17:28:17.945Z,100127.30
2019-04-20T17:30:59.366Z,100121.25
2019-04-20T17:33:54.638Z,100122.60
2019-04-20T17:36:19.038Z,100119.16
2019-04-20T17:38:48.504Z,100125.36
2019-04-20T17:41:34.719Z,100121.87
2019-04-20T17:44:01.433Z,100117.53
2019-04-20T17:46:24.748Z,100117.14
2019-04-20T17:48:59.114Z,100127.22
2019-04-20T17:51:37.174Z,100120.64
2019-04-20T17:53:52.725Z,100126.80
2019-04-20T17:56:17.333Z,100126.38
2019-04-20T17:58:46.163Z,100123.30
2019-04-20T18:01:35.839Z,100120.67
2019-04-20T18:04:31.101Z,100116.75
2019-04-20T18:06:44.099Z,100126.34
2019-04-20T18:09:07.124Z,100128.48
2019-04-20T18:11:32.737Z,100126.28
2019-04-20T18:14:05.597Z,100128.45
2019-04-20T18:16:51.069Z,100131.48
2019-04-20T18:19:19.228Z,100128.37
2019-04-20T18:21:43.858Z,100129.22
2019-04-20T18:24:24.015Z,100131.33
2019-04-20T18:26:59.747Z,100132.56
2019-04-20T18:29:32.283Z,100131.21
2019-04-20T18:31:43.821Z,100141.22
2019-04-20T18:34:16.440Z,100133.72
2019-04-20T18:36:47.198Z,100136.28
2019-04-20T18:39:16.553Z,100143.66
2019-04-20T18:41:48.624Z,100136.16
2019-04-20T18:44:14.843Z,100143.98
2019-04-20T18:47:06.633Z,100138.63
2019-04-20T18:49:31.320Z,100137.70
2019-04-20T18:51:43.940Z,100139.36
2019-04-20T18:54:19.447Z,100141.05
2019-04-20T18:56:47.372Z,100143.98
2019-04-20T18:59:13.368Z,100148.75
2019-04-20T19:01:43.794Z,100147.76
2019-04-20T19:04:12.377Z,100149.45
2019-04-20T19:06:41.452Z,100153.28
2019-04-20T19:09:17.770Z,100143.22
2019-04-20T19:11:43.533Z,100145.33
2019-04-20T19:14:33.610Z,100153.07
2019-04-20T19:17:09.024Z,100156.45
2019-04-20T19:19:39.403Z,100156.36
2019-04-20T19:22:01.763Z,100155.41
2019-04-20T19:24:34.565Z,100162.30
2019-04-20T19:27:05.080Z,100160.49
2019-04-20T19:29:38.137Z,100163.48
2019-04-20T19:32:20.703Z,100167.36
2019-04-20T19:34:45.318Z,100167.31
2019-04-20T19:37:13.715Z,100170.27
2019-04-20T19:39:47.388Z,100166.75
2019-04-20T19:42:16.034Z,100170.14
2019-04-20T19:44:45.142Z,100169.67
2019-04-20T19:47:21.060Z,100169.12
2019-04-20T19:49:41.919Z,100174.29
2019-04-20T19:52:32.747Z,100171.63
2019-04-20T19:54:50.757Z,100175.86
2019-04-20T19:57:24.375Z,100180.55
2019-04-20T19:59:39.886Z,100180.02
2019-04-20T20:02:03.663Z,100189.98
2019-04-20T20:04:42.586Z,100187.31
2019-04-20T20:07:05.548Z,100190.67
2019-04-20T20:09:37.880Z,100194.95
2019-04-20T20:12:05.116Z,100195.69
2019-04-20T20:14:36.792Z,100196.94
2019-04-20T20:17:19.955Z,100194.66
2019-04-20T20:19:54.567Z,100195.94
2019-04-20T20:22:12.766Z,100199.34
2019-04-20T20:24:33.348Z,100200.06
2019-04-20T20:27:06.223Z,100197.75
2019-04-20T20:29:40.958Z,100195.94
2019-04-20T20:32:16.738Z,100200.63
2019-04-20T20:34:40.512Z,100201.80
2019-04-20T20:37:08.465Z,100202.48
2019-04-20T20:39:36.255Z,100194.59
2019-04-20T20:42:15.188Z,100199.29
2019-04-20T20:44:41.209Z,100204.41
2019-04-20T20:47:21.702Z,100196.48
2019-04-20T20:49:56.854Z,100204.23
2019-04-20T20:52:22.037Z,100202.37
2019-04-20T20:54:44.897Z,100205.67
2019-04-20T20:57:07.354Z,100212.12
2019-04-20T20:59:43.015Z,100198.95
2019-04-20T21:02:08.894Z,100202.75
2019-04-20T21:04:33.465Z,100208.34
2019-04-20T21:07:02.718Z,100204.33
2019-04-20T21:09:31.369Z,100203.83
2019-04-20T21:12:06.589Z,100200.23
2019-04-20T21:14:34.699Z,100202.38
2019-04-20T21:17:04.963Z,100198.01
2019-04-20T21:19:48.064Z,100198.01
2019-04-20T21:22:06.912Z,100202.76
2019-04-20T21:24:31.167Z,100208.73
2019-04-20T21:27:07.012Z,100205.59
2019-04-20T21:29:35.875Z,100199.85
2019-04-20T21:32:05.100Z,100205.05
2019-04-20T21:34:31.160Z,100206.74
2019-04-20T21:37:07.044Z,100207.58
2019-04-20T21:39:38.919Z,100199.50
2019-04-20T21:42:06.459Z,100205.63
2019-04-20T21:44:35.107Z,100204.71
2019-04-20T21:47:00.325Z,100206.85
2019-04-20T21:49:43.630Z,100207.61
2019-04-20T21:52:03.650Z,100200.98
2019-04-20T21:54:29.844Z,100198.69
2019-04-20T21:57:03.156Z,100199.52
2019-04-20T21:59:35.136Z,100202.04
2019-04-20T22:02:06.521Z,100202.92
2019-04-20T22:04:29.126Z,100207.58
2019-04-20T22:06:58.309Z,100203.17
2019-04-20T22:09:34.432Z,100200.45
2019-04-20T22:11:58.007Z,100204.56
2019-04-20T22:14:28.388Z,100199.66
2019-04-20T22:16:58.356Z,100203.92
2019-04-20T22:19:36.678Z,100210.34
2019-04-20T22:22:07.741Z,100207.32
2019-04-20T22:24:42.471Z,100206.15
2019-04-20T22:27:06.329Z,100208.70
2019-04-20T22:29:26.485Z,100208.45
2019-04-20T22:32:01.428Z,100204.70
2019-04-20T22:34:27.937Z,100209.16
2019-04-20T22:36:56.013Z,100209.27
2019-04-20T22:39:32.186Z,100214.94
2019-04-20T22:42:03.215Z,100212.05
2019-04-20T22:44:28.753Z,100217.70
2019-04-20T22:46:56.550Z,100210.95
2019-04-20T22:49:39.961Z,100217.94
2019-04-20T22:52:04.068Z,100209.09
2019-04-20T22:54:39.738Z,100214.56
2019-04-20T22:57:03.335Z,100207.61
2019-04-20T22:59:37.216Z,100209.83
2019-04-20T23:01:59.919Z,100215.95
2019-04-20T23:04:25.032Z,100214.24
2019-04-20T23:06:55.155Z,100212.53
2019-04-20T23:09:24.626Z,100209.42
2019-04-20T23:12:01.002Z,100208.02
2019-04-20T23:14:22.944Z,100201.84
2019-04-20T23:16:53.959Z,100200.95
2019-04-20T23:19:31.991Z,100203.81
2019-04-20T23:21:57.272Z,100202.36
2019-04-20T23:24:21.955Z,100206.57
2019-04-20T23:26:50.857Z,100200.89
2019-04-20T23:29:21.400Z,100194.67
2019-04-20T23:31:56.927Z,100195.40
2019-04-20T23:34:23.145Z,100194.77
2019-04-20T23:36:50.758Z,100186.27
2019-04-20T23:39:22.580Z,100193.00
2019-04-20T23:41:56.662Z,100191.02
2019-04-20T23:44:23.638Z,100186.09
2019-04-20T23:47:06.877Z,100190.73
2019-04-20T23:49:50.789Z,100184.98
2019-04-20T23:52:27.001Z,100182.75
2019-04-20T23:54:34.055Z,100184.41
2019-04-20T23:57:01.778Z,100180.33
2019-04-20T23:59:37.382Z,100184.58
